Aérodrome :
LOGIN :

S'inscrire | Disclaimer

   EN    FR    IT 

 










Légende :    VFR   VFR Marginal   IFR   IFR Intensif   IFR Très Intensif
Visi : 
Plafond : 
>= 8 km
>= 3000ft
5 à 8 km
1000 à 3000 ft
1500m à 5 km
500 à 1000 ft
800 à 1500m
200 à 500 ft
< 800m
< 200 ft
Symboles :   Orages  Brouillard  Fortes neiges  Fortes précipitations  Vent > 20 kt
SIGMETs :   Divers  Orages  Givrage  Turbulence  Onde Orograph.  Cendres Volcan.






- Altitude de l'aérodrome : 989 ft
- Code IATA : TRN


LIMF - Torino Caselle

DERNIER METAR :
  • 151420Z 32003KT 270V030 9999 SCT008 BKN018 16/15 Q1008

METARs EXPIRÉS :
  • 151350Z 27005KT 9999 BKN015 16/15 Q1008
  • 151320Z 23005KT 210V270 9999 -RA SCT015 OVC050 15/14 Q1009
  • 151250Z 27003KT 190V340 9999 BKN015 OVC050 15/14 Q1009
  • 151220Z 30006KT 9999 BKN020 OVC060 15/13 Q1009 RERA
  • 151150Z 35010KT 5000 RA BR SCT015 BKN065 14/13 Q1009

TAF TAF LIMF
Valide du 15 à 12h jusqu'au 16 à 12h UTC


151100Z 1512/1612 VRB05KT 4000 BR BKN015 BKN040
TEMPO 1512/1516 2000 TSRA BKN010CB BKN020
TEMPO 1600/1607 1200 BCFG
BECMG 1607/1610 7000 SCT025



MET'MAP, la Météo Aéronautique d'un coup d'oeil ! - Copyright ORBIFLY Décembre 2007 - Disclaimer

ORBIFLY MET'MAP TEAM :

Programmation & Développement : Alexandra Zaïnal
Conception & Développement : Baudouin d'Aumeries
Co-Programmation & Développement : Marc-Olivier Méhu
Soutien technique & logistique : Manuel Goepfert

Contact : metmap@orbifly.com




SOURCES & CREDITS :

   NOAA